sensor_id;sensor_type;location;lat;lon;timestamp;temperature;humidity
22450;DHT22;11392;57.390;-2.468;2023-09-07T00:02:13;14.90;99.90
22450;DHT22;11392;57.390;-2.468;2023-09-07T00:04:40;15.00;99.90
22450;DHT22;11392;57.390;-2.468;2023-09-07T00:07:07;15.10;99.90
22450;DHT22;11392;57.390;-2.468;2023-09-07T00:09:34;15.10;99.90
22450;DHT22;11392;57.390;-2.468;2023-09-07T00:12:01;15.20;99.90
22450;DHT22;11392;57.390;-2.468;2023-09-07T00:14:28;15.20;99.90
22450;DHT22;11392;57.390;-2.468;2023-09-07T00:16:55;15.20;99.90
22450;DHT22;11392;57.390;-2.468;2023-09-07T00:19:24;15.20;99.90
22450;DHT22;11392;57.390;-2.468;2023-09-07T00:21:51;15.20;99.90
22450;DHT22;11392;57.390;-2.468;2023-09-07T00:24:18;15.20;99.90
22450;DHT22;11392;57.390;-2.468;2023-09-07T00:26:46;15.30;99.90
22450;DHT22;11392;57.390;-2.468;2023-09-07T00:29:13;15.30;99.90
22450;DHT22;11392;57.390;-2.468;2023-09-07T00:31:39;15.30;99.90
22450;DHT22;11392;57.390;-2.468;2023-09-07T00:34:08;15.30;99.90
22450;DHT22;11392;57.390;-2.468;2023-09-07T00:36:35;15.40;99.90
22450;DHT22;11392;57.390;-2.468;2023-09-07T00:39:03;15.40;99.90
22450;DHT22;11392;57.390;-2.468;2023-09-07T00:41:30;15.40;99.90
22450;DHT22;11392;57.390;-2.468;2023-09-07T00:43:57;15.40;99.90
22450;DHT22;11392;57.390;-2.468;2023-09-07T00:46:24;15.40;99.90
22450;DHT22;11392;57.390;-2.468;2023-09-07T00:48:51;15.50;99.90
22450;DHT22;11392;57.390;-2.468;2023-09-07T00:51:18;15.40;99.90
22450;DHT22;11392;57.390;-2.468;2023-09-07T00:53:45;15.40;99.90
22450;DHT22;11392;57.390;-2.468;2023-09-07T00:56:13;15.30;99.90
22450;DHT22;11392;57.390;-2.468;2023-09-07T00:58:41;15.30;99.90
22450;DHT22;11392;57.390;-2.468;2023-09-07T01:01:08;15.30;99.90
22450;DHT22;11392;57.390;-2.468;2023-09-07T01:03:36;15.20;99.90
22450;DHT22;11392;57.390;-2.468;2023-09-07T01:06:30;15.30;99.90
22450;DHT22;11392;57.390;-2.468;2023-09-07T01:09:01;15.30;99.90
22450;DHT22;11392;57.390;-2.468;2023-09-07T01:11:36;15.40;99.90
22450;DHT22;11392;57.390;-2.468;2023-09-07T01:14:04;15.50;99.90
22450;DHT22;11392;57.390;-2.468;2023-09-07T01:16:31;15.50;99.90
22450;DHT22;11392;57.390;-2.468;2023-09-07T01:19:05;15.60;99.90
22450;DHT22;11392;57.390;-2.468;2023-09-07T01:21:38;15.60;99.90
22450;DHT22;11392;57.390;-2.468;2023-09-07T01:24:09;15.60;99.90
22450;DHT22;11392;57.390;-2.468;2023-09-07T01:26:37;15.60;99.90
22450;DHT22;11392;57.390;-2.468;2023-09-07T01:29:08;15.50;99.90
22450;DHT22;11392;57.390;-2.468;2023-09-07T01:31:36;15.50;99.90
22450;DHT22;11392;57.390;-2.468;2023-09-07T01:34:05;15.60;99.90
22450;DHT22;11392;57.390;-2.468;2023-09-07T01:36:33;15.50;99.90
22450;DHT22;11392;57.390;-2.468;2023-09-07T01:39:00;15.60;99.90
22450;DHT22;11392;57.390;-2.468;2023-09-07T01:41:27;15.60;99.90
22450;DHT22;11392;57.390;-2.468;2023-09-07T01:43:55;15.50;99.90
22450;DHT22;11392;57.390;-2.468;2023-09-07T01:46:23;15.60;99.90
22450;DHT22;11392;57.390;-2.468;2023-09-07T01:48:50;15.50;99.90
22450;DHT22;11392;57.390;-2.468;2023-09-07T01:51:17;15.40;99.90
22450;DHT22;11392;57.390;-2.468;2023-09-07T01:53:47;15.40;99.90
22450;DHT22;11392;57.390;-2.468;2023-09-07T01:56:17;15.40;99.90
22450;DHT22;11392;57.390;-2.468;2023-09-07T01:58:44;15.40;99.90
22450;DHT22;11392;57.390;-2.468;2023-09-07T02:01:26;15.40;99.90
22450;DHT22;11392;57.390;-2.468;2023-09-07T02:03:53;15.40;99.90
22450;DHT22;11392;57.390;-2.468;2023-09-07T02:06:20;15.30;99.90
22450;DHT22;11392;57.390;-2.468;2023-09-07T02:08:47;15.30;99.90
22450;DHT22;11392;57.390;-2.468;2023-09-07T02:11:15;15.10;99.90
22450;DHT22;11392;57.390;-2.468;2023-09-07T02:13:43;15.00;99.90
22450;DHT22;11392;57.390;-2.468;2023-09-07T02:16:10;15.00;99.90
22450;DHT22;11392;57.390;-2.468;2023-09-07T02:18:37;15.00;99.90
22450;DHT22;11392;57.390;-2.468;2023-09-07T02:21:06;15.00;99.90
22450;DHT22;11392;57.390;-2.468;2023-09-07T02:23:33;15.00;99.90
22450;DHT22;11392;57.390;-2.468;2023-09-07T02:26:00;14.90;99.90
22450;DHT22;11392;57.390;-2.468;2023-09-07T02:28:27;14.80;99.90
22450;DHT22;11392;57.390;-2.468;2023-09-07T02:31:01;14.70;99.90
22450;DHT22;11392;57.390;-2.468;2023-09-07T02:33:29;14.70;99.90
22450;DHT22;11392;57.390;-2.468;2023-09-07T02:35:57;14.70;99.90
22450;DHT22;11392;57.390;-2.468;2023-09-07T02:38:24;14.70;99.90
22450;DHT22;11392;57.390;-2.468;2023-09-07T02:40:52;14.60;99.90
22450;DHT22;11392;57.390;-2.468;2023-09-07T02:43:19;14.60;99.90
22450;DHT22;11392;57.390;-2.468;2023-09-07T02:45:48;14.60;99.90
22450;DHT22;11392;57.390;-2.468;2023-09-07T02:48:16;14.60;99.90
22450;DHT22;11392;57.390;-2.468;2023-09-07T02:50:43;14.60;99.90
22450;DHT22;11392;57.390;-2.468;2023-09-07T02:53:15;14.60;99.90
22450;DHT22;11392;57.390;-2.468;2023-09-07T02:55:42;14.60;99.90
22450;DHT22;11392;57.390;-2.468;2023-09-07T02:58:10;14.60;99.90
22450;DHT22;11392;57.390;-2.468;2023-09-07T03:00:42;14.60;99.90
22450;DHT22;11392;57.390;-2.468;2023-09-07T03:03:12;14.60;99.90
22450;DHT22;11392;57.390;-2.468;2023-09-07T03:05:41;14.60;99.90
22450;DHT22;11392;57.390;-2.468;2023-09-07T03:08:08;14.70;99.90
22450;DHT22;11392;57.390;-2.468;2023-09-07T03:10:36;14.60;99.90
22450;DHT22;11392;57.390;-2.468;2023-09-07T03:13:05;14.60;99.90
22450;DHT22;11392;57.390;-2.468;2023-09-07T03:15:32;14.60;99.90
22450;DHT22;11392;57.390;-2.468;2023-09-07T03:17:59;14.60;99.90
22450;DHT22;11392;57.390;-2.468;2023-09-07T03:20:28;14.60;99.90
22450;DHT22;11392;57.390;-2.468;2023-09-07T03:22:54;14.50;99.90
22450;DHT22;11392;57.390;-2.468;2023-09-07T03:25:23;14.50;99.90
22450;DHT22;11392;57.390;-2.468;2023-09-07T03:27:50;14.50;99.90
22450;DHT22;11392;57.390;-2.468;2023-09-07T03:30:17;14.50;99.90
22450;DHT22;11392;57.390;-2.468;2023-09-07T03:32:44;14.60;99.90
22450;DHT22;11392;57.390;-2.468;2023-09-07T03:35:11;14.60;99.90
22450;DHT22;11392;57.390;-2.468;2023-09-07T03:37:38;14.60;99.90
22450;DHT22;11392;57.390;-2.468;2023-09-07T03:40:06;14.70;99.90
22450;DHT22;11392;57.390;-2.468;2023-09-07T03:42:33;14.70;99.90
22450;DHT22;11392;57.390;-2.468;2023-09-07T03:45:00;14.80;99.90
22450;DHT22;11392;57.390;-2.468;2023-09-07T03:47:27;14.80;99.90
22450;DHT22;11392;57.390;-2.468;2023-09-07T03:49:57;14.70;99.90
22450;DHT22;11392;57.390;-2.468;2023-09-07T03:52:24;14.70;99.90
22450;DHT22;11392;57.390;-2.468;2023-09-07T03:54:56;14.80;99.90
22450;DHT22;11392;57.390;-2.468;2023-09-07T03:57:25;14.80;99.90
22450;DHT22;11392;57.390;-2.468;2023-09-07T03:59:52;14.90;99.90
22450;DHT22;11392;57.390;-2.468;2023-09-07T04:02:19;14.90;99.90
22450;DHT22;11392;57.390;-2.468;2023-09-07T04:04:50;14.90;99.90
22450;DHT22;11392;57.390;-2.468;2023-09-07T04:07:18;14.90;99.90
22450;DHT22;11392;57.390;-2.468;2023-09-07T04:09:46;14.90;99.90
22450;DHT22;11392;57.390;-2.468;2023-09-07T04:12:13;15.00;99.90
22450;DHT22;11392;57.390;-2.468;2023-09-07T04:14:40;14.90;99.90
22450;DHT22;11392;57.390;-2.468;2023-09-07T04:17:08;14.90;99.90
22450;DHT22;11392;57.390;-2.468;2023-09-07T04:19:35;14.80;99.90
22450;DHT22;11392;57.390;-2.468;2023-09-07T04:22:02;14.80;99.90
22450;DHT22;11392;57.390;-2.468;2023-09-07T04:24:29;14.80;99.90
22450;DHT22;11392;57.390;-2.468;2023-09-07T04:27:00;14.70;99.90
22450;DHT22;11392;57.390;-2.468;2023-09-07T04:29:28;14.70;99.90
22450;DHT22;11392;57.390;-2.468;2023-09-07T04:31:56;14.70;99.90
22450;DHT22;11392;57.390;-2.468;2023-09-07T04:34:23;14.60;99.90
22450;DHT22;11392;57.390;-2.468;2023-09-07T04:36:51;14.50;99.90
22450;DHT22;11392;57.390;-2.468;2023-09-07T04:39:18;14.50;99.90
22450;DHT22;11392;57.390;-2.468;2023-09-07T04:41:45;14.50;99.90
22450;DHT22;11392;57.390;-2.468;2023-09-07T04:44:13;14.50;99.90
22450;DHT22;11392;57.390;-2.468;2023-09-07T04:46:40;14.40;99.90
22450;DHT22;11392;57.390;-2.468;2023-09-07T04:49:07;14.40;99.90
22450;DHT22;11392;57.390;-2.468;2023-09-07T04:51:34;14.30;99.90
22450;DHT22;11392;57.390;-2.468;2023-09-07T04:54:01;14.30;99.90
22450;DHT22;11392;57.390;-2.468;2023-09-07T04:56:28;14.20;99.90
22450;DHT22;11392;57.390;-2.468;2023-09-07T04:58:56;14.20;99.90
22450;DHT22;11392;57.390;-2.468;2023-09-07T05:01:23;14.20;99.90
22450;DHT22;11392;57.390;-2.468;2023-09-07T05:03:50;14.10;99.90
22450;DHT22;11392;57.390;-2.468;2023-09-07T05:06:18;14.10;99.90
22450;DHT22;11392;57.390;-2.468;2023-09-07T05:08:46;14.10;99.90
22450;DHT22;11392;57.390;-2.468;2023-09-07T05:11:12;14.10;99.90
22450;DHT22;11392;57.390;-2.468;2023-09-07T05:13:39;14.10;99.90
22450;DHT22;11392;57.390;-2.468;2023-09-07T05:16:06;14.10;99.90
22450;DHT22;11392;57.390;-2.468;2023-09-07T05:18:33;14.00;99.90
22450;DHT22;11392;57.390;-2.468;2023-09-07T05:21:10;14.00;99.90
22450;DHT22;11392;57.390;-2.468;2023-09-07T05:23:38;14.00;99.90
22450;DHT22;11392;57.390;-2.468;2023-09-07T05:26:05;14.10;99.90
22450;DHT22;11392;57.390;-2.468;2023-09-07T05:28:31;14.10;99.90
22450;DHT22;11392;57.390;-2.468;2023-09-07T05:30:59;14.30;99.90
22450;DHT22;11392;57.390;-2.468;2023-09-07T05:33:26;14.20;99.90
22450;DHT22;11392;57.390;-2.468;2023-09-07T05:35:53;14.10;99.90
22450;DHT22;11392;57.390;-2.468;2023-09-07T05:38:20;14.10;99.90
22450;DHT22;11392;57.390;-2.468;2023-09-07T05:40:47;14.10;99.90
22450;DHT22;11392;57.390;-2.468;2023-09-07T05:43:17;14.00;99.90
22450;DHT22;11392;57.390;-2.468;2023-09-07T05:45:44;14.00;99.90
22450;DHT22;11392;57.390;-2.468;2023-09-07T05:48:11;14.10;99.90
22450;DHT22;11392;57.390;-2.468;2023-09-07T05:50:40;14.10;99.90
22450;DHT22;11392;57.390;-2.468;2023-09-07T05:53:09;14.10;99.90
22450;DHT22;11392;57.390;-2.468;2023-09-07T05:55:36;14.20;99.90
22450;DHT22;11392;57.390;-2.468;2023-09-07T05:58:07;14.30;99.90
22450;DHT22;11392;57.390;-2.468;2023-09-07T06:00:35;14.30;99.90
22450;DHT22;11392;57.390;-2.468;2023-09-07T06:03:03;14.40;99.90
22450;DHT22;11392;57.390;-2.468;2023-09-07T06:05:30;14.40;99.90
22450;DHT22;11392;57.390;-2.468;2023-09-07T06:07:58;14.40;99.90
22450;DHT22;11392;57.390;-2.468;2023-09-07T06:10:25;14.30;99.90
22450;DHT22;11392;57.390;-2.468;2023-09-07T06:12:54;14.30;99.90
22450;DHT22;11392;57.390;-2.468;2023-09-07T06:15:22;14.30;99.90
22450;DHT22;11392;57.390;-2.468;2023-09-07T06:17:49;14.40;99.90
22450;DHT22;11392;57.390;-2.468;2023-09-07T06:20:16;14.50;99.90
22450;DHT22;11392;57.390;-2.468;2023-09-07T06:22:46;14.60;99.90
22450;DHT22;11392;57.390;-2.468;2023-09-07T06:25:12;14.70;99.90
22450;DHT22;11392;57.390;-2.468;2023-09-07T06:27:40;14.80;99.90
22450;DHT22;11392;57.390;-2.468;2023-09-07T06:30:07;14.70;99.90
22450;DHT22;11392;57.390;-2.468;2023-09-07T06:32:34;14.80;99.90
22450;DHT22;11392;57.390;-2.468;2023-09-07T06:35:02;14.80;99.90
22450;DHT22;11392;57.390;-2.468;2023-09-07T06:37:29;14.90;99.90
22450;DHT22;11392;57.390;-2.468;2023-09-07T06:39:56;15.10;99.90
22450;DHT22;11392;57.390;-2.468;2023-09-07T06:42:23;15.20;99.90
22450;DHT22;11392;57.390;-2.468;2023-09-07T06:44:51;15.20;99.90
22450;DHT22;11392;57.390;-2.468;2023-09-07T06:47:19;15.20;99.90
22450;DHT22;11392;57.390;-2.468;2023-09-07T06:49:45;15.20;99.90
22450;DHT22;11392;57.390;-2.468;2023-09-07T06:52:12;15.20;99.90
22450;DHT22;11392;57.390;-2.468;2023-09-07T06:54:40;15.20;99.90
22450;DHT22;11392;57.390;-2.468;2023-09-07T06:57:07;15.20;99.90
22450;DHT22;11392;57.390;-2.468;2023-09-07T06:59:35;15.30;99.90
22450;DHT22;11392;57.390;-2.468;2023-09-07T07:02:02;15.30;99.90
22450;DHT22;11392;57.390;-2.468;2023-09-07T07:04:31;15.40;99.90
22450;DHT22;11392;57.390;-2.468;2023-09-07T07:06:59;15.40;99.90
22450;DHT22;11392;57.390;-2.468;2023-09-07T07:09:31;15.40;99.90
22450;DHT22;11392;57.390;-2.468;2023-09-07T07:12:01;15.50;99.90
22450;DHT22;11392;57.390;-2.468;2023-09-07T07:14:28;15.70;99.90
22450;DHT22;11392;57.390;-2.468;2023-09-07T07:16:55;15.80;99.90
22450;DHT22;11392;57.390;-2.468;2023-09-07T07:19:22;15.90;99.90
22450;DHT22;11392;57.390;-2.468;2023-09-07T07:21:49;16.00;99.90
22450;DHT22;11392;57.390;-2.468;2023-09-07T07:24:16;16.20;99.90
22450;DHT22;11392;57.390;-2.468;2023-09-07T07:26:44;16.50;99.90
22450;DHT22;11392;57.390;-2.468;2023-09-07T07:29:11;16.50;99.90
22450;DHT22;11392;57.390;-2.468;2023-09-07T07:31:38;16.60;99.90
22450;DHT22;11392;57.390;-2.468;2023-09-07T07:34:05;16.60;99.90
22450;DHT22;11392;57.390;-2.468;2023-09-07T07:36:32;16.90;99.90
22450;DHT22;11392;57.390;-2.468;2023-09-07T07:38:59;17.40;99.90
22450;DHT22;11392;57.390;-2.468;2023-09-07T07:41:26;17.60;99.90
22450;DHT22;11392;57.390;-2.468;2023-09-07T07:43:54;17.90;99.90
22450;DHT22;11392;57.390;-2.468;2023-09-07T07:46:21;18.00;99.90
22450;DHT22;11392;57.390;-2.468;2023-09-07T07:48:48;18.00;99.90
22450;DHT22;11392;57.390;-2.468;2023-09-07T07:51:15;18.00;99.90
22450;DHT22;11392;57.390;-2.468;2023-09-07T07:53:42;18.00;99.90
22450;DHT22;11392;57.390;-2.468;2023-09-07T07:56:19;17.90;99.90
22450;DHT22;11392;57.390;-2.468;2023-09-07T07:58:46;17.80;99.90
22450;DHT22;11392;57.390;-2.468;2023-09-07T08:01:18;17.70;99.90
22450;DHT22;11392;57.390;-2.468;2023-09-07T08:03:45;17.60;99.90
22450;DHT22;11392;57.390;-2.468;2023-09-07T08:06:12;17.60;99.90
22450;DHT22;11392;57.390;-2.468;2023-09-07T08:08:39;17.60;99.90
22450;DHT22;11392;57.390;-2.468;2023-09-07T08:11:06;17.60;99.90
22450;DHT22;11392;57.390;-2.468;2023-09-07T08:13:34;17.60;99.90
22450;DHT22;11392;57.390;-2.468;2023-09-07T08:16:02;17.50;99.90
22450;DHT22;11392;57.390;-2.468;2023-09-07T08:18:33;17.50;99.90
22450;DHT22;11392;57.390;-2.468;2023-09-07T08:21:02;17.60;99.90
22450;DHT22;11392;57.390;-2.468;2023-09-07T08:23:29;17.60;99.90
22450;DHT22;11392;57.390;-2.468;2023-09-07T08:25:56;17.60;99.90
22450;DHT22;11392;57.390;-2.468;2023-09-07T08:28:23;17.70;99.90
22450;DHT22;11392;57.390;-2.468;2023-09-07T08:30:52;18.00;99.90
22450;DHT22;11392;57.390;-2.468;2023-09-07T08:33:23;18.20;99.90
22450;DHT22;11392;57.390;-2.468;2023-09-07T08:35:56;18.60;99.90
22450;DHT22;11392;57.390;-2.468;2023-09-07T08:38:24;18.90;99.90
22450;DHT22;11392;57.390;-2.468;2023-09-07T08:40:55;19.20;99.90
22450;DHT22;11392;57.390;-2.468;2023-09-07T08:43:29;19.40;99.90
22450;DHT22;11392;57.390;-2.468;2023-09-07T08:46:04;19.60;99.90
22450;DHT22;11392;57.390;-2.468;2023-09-07T08:48:34;19.60;99.90
22450;DHT22;11392;57.390;-2.468;2023-09-07T08:51:03;19.60;99.90
22450;DHT22;11392;57.390;-2.468;2023-09-07T08:53:31;19.70;99.90
22450;DHT22;11392;57.390;-2.468;2023-09-07T08:56:01;19.90;99.90
22450;DHT22;11392;57.390;-2.468;2023-09-07T08:58:29;19.90;99.90
22450;DHT22;11392;57.390;-2.468;2023-09-07T09:00:57;20.00;99.90
22450;DHT22;11392;57.390;-2.468;2023-09-07T09:03:34;20.20;99.90
22450;DHT22;11392;57.390;-2.468;2023-09-07T09:06:02;20.50;99.90
22450;DHT22;11392;57.390;-2.468;2023-09-07T09:08:29;20.80;99.90
22450;DHT22;11392;57.390;-2.468;2023-09-07T09:11:03;21.00;99.90
22450;DHT22;11392;57.390;-2.468;2023-09-07T09:13:31;21.50;99.90
22450;DHT22;11392;57.390;-2.468;2023-09-07T09:16:01;22.00;99.90
22450;DHT22;11392;57.390;-2.468;2023-09-07T09:18:29;22.30;99.90
22450;DHT22;11392;57.390;-2.468;2023-09-07T09:20:57;22.80;99.90
22450;DHT22;11392;57.390;-2.468;2023-09-07T09:26:00;23.10;99.90
22450;DHT22;11392;57.390;-2.468;2023-09-07T09:28:27;23.20;99.90
22450;DHT22;11392;57.390;-2.468;2023-09-07T09:30:55;23.20;99.90
22450;DHT22;11392;57.390;-2.468;2023-09-07T09:33:23;23.50;99.90
22450;DHT22;11392;57.390;-2.468;2023-09-07T09:35:52;23.90;99.90
22450;DHT22;11392;57.390;-2.468;2023-09-07T09:38:19;24.30;99.90
22450;DHT22;11392;57.390;-2.468;2023-09-07T09:40:47;24.60;99.90
22450;DHT22;11392;57.390;-2.468;2023-09-07T09:43:14;24.80;99.90
22450;DHT22;11392;57.390;-2.468;2023-09-07T09:45:41;24.90;99.90
22450;DHT22;11392;57.390;-2.468;2023-09-07T09:48:09;25.00;99.90
22450;DHT22;11392;57.390;-2.468;2023-09-07T09:50:36;25.10;99.90
22450;DHT22;11392;57.390;-2.468;2023-09-07T09:53:08;25.30;99.90
22450;DHT22;11392;57.390;-2.468;2023-09-07T09:55:35;25.40;99.90
22450;DHT22;11392;57.390;-2.468;2023-09-07T09:58:02;25.70;99.90
22450;DHT22;11392;57.390;-2.468;2023-09-07T10:00:30;25.90;99.90
22450;DHT22;11392;57.390;-2.468;2023-09-07T10:03:06;26.10;99.90
22450;DHT22;11392;57.390;-2.468;2023-09-07T10:05:34;26.40;99.90
22450;DHT22;11392;57.390;-2.468;2023-09-07T10:08:09;26.60;99.90
22450;DHT22;11392;57.390;-2.468;2023-09-07T10:10:37;26.70;99.90
22450;DHT22;11392;57.390;-2.468;2023-09-07T10:13:05;27.10;99.90
22450;DHT22;11392;57.390;-2.468;2023-09-07T10:15:32;27.30;99.90
22450;DHT22;11392;57.390;-2.468;2023-09-07T10:18:08;27.40;99.90
22450;DHT22;11392;57.390;-2.468;2023-09-07T10:20:56;27.70;99.90
22450;DHT22;11392;57.390;-2.468;2023-09-07T10:23:42;27.90;99.90
22450;DHT22;11392;57.390;-2.468;2023-09-07T10:26:14;28.00;99.90
22450;DHT22;11392;57.390;-2.468;2023-09-07T10:28:43;28.20;99.90
22450;DHT22;11392;57.390;-2.468;2023-09-07T10:33:43;28.70;99.90
22450;DHT22;11392;57.390;-2.468;2023-09-07T10:36:27;29.00;99.90
22450;DHT22;11392;57.390;-2.468;2023-09-07T10:38:56;29.10;99.90
22450;DHT22;11392;57.390;-2.468;2023-09-07T10:41:23;29.30;99.90
22450;DHT22;11392;57.390;-2.468;2023-09-07T10:43:53;29.30;99.90
22450;DHT22;11392;57.390;-2.468;2023-09-07T10:46:21;29.10;99.90
22450;DHT22;11392;57.390;-2.468;2023-09-07T10:48:52;29.30;99.90
22450;DHT22;11392;57.390;-2.468;2023-09-07T10:51:20;29.20;99.90
22450;DHT22;11392;57.390;-2.468;2023-09-07T10:53:48;29.40;99.90
22450;DHT22;11392;57.390;-2.468;2023-09-07T10:56:15;29.50;99.90
22450;DHT22;11392;57.390;-2.468;2023-09-07T10:58:42;29.60;99.90
22450;DHT22;11392;57.390;-2.468;2023-09-07T11:01:10;29.80;99.90
22450;DHT22;11392;57.390;-2.468;2023-09-07T11:03:38;29.90;99.90
22450;DHT22;11392;57.390;-2.468;2023-09-07T11:06:11;29.70;99.90
22450;DHT22;11392;57.390;-2.468;2023-09-07T11:08:38;29.90;99.90
22450;DHT22;11392;57.390;-2.468;2023-09-07T11:11:05;30.00;99.90
22450;DHT22;11392;57.390;-2.468;2023-09-07T11:13:33;30.00;99.90
22450;DHT22;11392;57.390;-2.468;2023-09-07T11:16:00;30.20;99.90
22450;DHT22;11392;57.390;-2.468;2023-09-07T11:18:29;30.10;99.90
22450;DHT22;11392;57.390;-2.468;2023-09-07T11:20:56;30.10;99.90
22450;DHT22;11392;57.390;-2.468;2023-09-07T11:23:23;30.40;99.90
22450;DHT22;11392;57.390;-2.468;2023-09-07T11:25:51;30.70;99.90
22450;DHT22;11392;57.390;-2.468;2023-09-07T11:28:19;30.90;99.90
22450;DHT22;11392;57.390;-2.468;2023-09-07T11:30:53;30.90;99.90
22450;DHT22;11392;57.390;-2.468;2023-09-07T11:33:22;31.10;99.90
22450;DHT22;11392;57.390;-2.468;2023-09-07T11:35:50;31.20;99.90
22450;DHT22;11392;57.390;-2.468;2023-09-07T11:38:17;31.30;99.90
22450;DHT22;11392;57.390;-2.468;2023-09-07T11:40:45;31.40;99.90
22450;DHT22;11392;57.390;-2.468;2023-09-07T11:43:13;31.60;99.90
22450;DHT22;11392;57.390;-2.468;2023-09-07T11:45:41;31.70;99.90
22450;DHT22;11392;57.390;-2.468;2023-09-07T11:48:09;31.80;99.90
22450;DHT22;11392;57.390;-2.468;2023-09-07T11:50:37;31.80;99.90
22450;DHT22;11392;57.390;-2.468;2023-09-07T11:53:05;31.90;99.90
22450;DHT22;11392;57.390;-2.468;2023-09-07T11:55:35;31.70;99.90
22450;DHT22;11392;57.390;-2.468;2023-09-07T11:58:03;31.60;99.90
22450;DHT22;11392;57.390;-2.468;2023-09-07T12:00:31;31.70;99.90
22450;DHT22;11392;57.390;-2.468;2023-09-07T12:02:59;31.50;99.90
22450;DHT22;11392;57.390;-2.468;2023-09-07T12:05:26;31.70;99.90
22450;DHT22;11392;57.390;-2.468;2023-09-07T12:07:53;31.70;99.90
22450;DHT22;11392;57.390;-2.468;2023-09-07T12:10:21;31.70;99.90
22450;DHT22;11392;57.390;-2.468;2023-09-07T12:12:48;31.60;99.90
22450;DHT22;11392;57.390;-2.468;2023-09-07T12:15:15;31.70;99.90
22450;DHT22;11392;57.390;-2.468;2023-09-07T12:17:42;31.90;99.90
22450;DHT22;11392;57.390;-2.468;2023-09-07T12:20:10;31.80;99.90
22450;DHT22;11392;57.390;-2.468;2023-09-07T12:22:37;31.70;99.90
22450;DHT22;11392;57.390;-2.468;2023-09-07T12:25:06;32.10;99.90
22450;DHT22;11392;57.390;-2.468;2023-09-07T12:27:42;32.20;99.90
22450;DHT22;11392;57.390;-2.468;2023-09-07T12:30:21;32.20;99.90
22450;DHT22;11392;57.390;-2.468;2023-09-07T12:32:50;32.40;99.90
22450;DHT22;11392;57.390;-2.468;2023-09-07T12:35:18;32.30;99.90
22450;DHT22;11392;57.390;-2.468;2023-09-07T12:37:46;32.30;99.90
22450;DHT22;11392;57.390;-2.468;2023-09-07T12:40:14;32.50;99.90
22450;DHT22;11392;57.390;-2.468;2023-09-07T12:42:44;32.30;99.90
22450;DHT22;11392;57.390;-2.468;2023-09-07T12:45:12;32.30;99.90
22450;DHT22;11392;57.390;-2.468;2023-09-07T12:47:40;32.30;99.90
22450;DHT22;11392;57.390;-2.468;2023-09-07T12:50:09;32.30;99.90
22450;DHT22;11392;57.390;-2.468;2023-09-07T12:52:36;32.40;99.90
22450;DHT22;11392;57.390;-2.468;2023-09-07T12:55:06;32.30;99.90
22450;DHT22;11392;57.390;-2.468;2023-09-07T12:57:33;32.50;99.90
22450;DHT22;11392;57.390;-2.468;2023-09-07T13:00:03;32.80;99.90
22450;DHT22;11392;57.390;-2.468;2023-09-07T13:02:30;32.70;99.90
22450;DHT22;11392;57.390;-2.468;2023-09-07T13:04:58;32.70;99.90
22450;DHT22;11392;57.390;-2.468;2023-09-07T13:07:25;32.50;99.90
22450;DHT22;11392;57.390;-2.468;2023-09-07T13:09:52;32.30;99.90
22450;DHT22;11392;57.390;-2.468;2023-09-07T13:12:21;32.20;99.90
22450;DHT22;11392;57.390;-2.468;2023-09-07T13:14:48;32.20;99.90
22450;DHT22;11392;57.390;-2.468;2023-09-07T13:17:15;32.30;99.90
22450;DHT22;11392;57.390;-2.468;2023-09-07T13:19:43;32.30;99.90
22450;DHT22;11392;57.390;-2.468;2023-09-07T13:22:11;32.30;99.90
22450;DHT22;11392;57.390;-2.468;2023-09-07T13:24:38;32.30;99.90
22450;DHT22;11392;57.390;-2.468;2023-09-07T13:27:06;32.30;99.90
22450;DHT22;11392;57.390;-2.468;2023-09-07T13:29:33;32.30;99.90
22450;DHT22;11392;57.390;-2.468;2023-09-07T13:32:00;32.40;99.90
22450;DHT22;11392;57.390;-2.468;2023-09-07T13:34:27;32.40;99.90
22450;DHT22;11392;57.390;-2.468;2023-09-07T13:36:55;32.20;99.90
22450;DHT22;11392;57.390;-2.468;2023-09-07T13:39:23;31.70;99.90
22450;DHT22;11392;57.390;-2.468;2023-09-07T13:41:50;31.50;99.90
22450;DHT22;11392;57.390;-2.468;2023-09-07T13:44:17;31.20;99.90
22450;DHT22;11392;57.390;-2.468;2023-09-07T13:46:45;31.00;99.90
22450;DHT22;11392;57.390;-2.468;2023-09-07T13:49:12;30.80;99.90
22450;DHT22;11392;57.390;-2.468;2023-09-07T13:51:40;30.60;99.90
22450;DHT22;11392;57.390;-2.468;2023-09-07T13:54:08;30.80;99.90
22450;DHT22;11392;57.390;-2.468;2023-09-07T13:56:36;30.80;99.90
22450;DHT22;11392;57.390;-2.468;2023-09-07T13:59:04;31.00;99.90
22450;DHT22;11392;57.390;-2.468;2023-09-07T14:01:31;31.10;99.90
22450;DHT22;11392;57.390;-2.468;2023-09-07T14:04:00;31.30;99.90
22450;DHT22;11392;57.390;-2.468;2023-09-07T14:06:27;31.10;99.90
22450;DHT22;11392;57.390;-2.468;2023-09-07T14:08:54;31.10;99.90
22450;DHT22;11392;57.390;-2.468;2023-09-07T14:11:21;31.00;99.90
22450;DHT22;11392;57.390;-2.468;2023-09-07T14:13:51;30.80;99.90
22450;DHT22;11392;57.390;-2.468;2023-09-07T14:16:19;30.50;99.90
22450;DHT22;11392;57.390;-2.468;2023-09-07T14:18:49;30.10;99.90
22450;DHT22;11392;57.390;-2.468;2023-09-07T14:21:17;29.90;99.90
22450;DHT22;11392;57.390;-2.468;2023-09-07T14:23:45;29.70;99.90
22450;DHT22;11392;57.390;-2.468;2023-09-07T14:26:12;29.70;99.90
22450;DHT22;11392;57.390;-2.468;2023-09-07T14:28:39;29.70;99.90
22450;DHT22;11392;57.390;-2.468;2023-09-07T14:31:07;29.60;99.90
22450;DHT22;11392;57.390;-2.468;2023-09-07T14:33:35;29.50;99.90
22450;DHT22;11392;57.390;-2.468;2023-09-07T14:36:08;29.40;99.90
22450;DHT22;11392;57.390;-2.468;2023-09-07T14:38:36;29.40;99.90
22450;DHT22;11392;57.390;-2.468;2023-09-07T14:41:08;29.00;99.90
22450;DHT22;11392;57.390;-2.468;2023-09-07T14:43:47;28.70;99.90
22450;DHT22;11392;57.390;-2.468;2023-09-07T14:46:15;28.30;99.90
22450;DHT22;11392;57.390;-2.468;2023-09-07T14:48:43;27.90;99.90
22450;DHT22;11392;57.390;-2.468;2023-09-07T14:51:11;27.70;99.90
22450;DHT22;11392;57.390;-2.468;2023-09-07T14:53:38;27.50;99.90
22450;DHT22;11392;57.390;-2.468;2023-09-07T14:56:05;27.30;99.90
22450;DHT22;11392;57.390;-2.468;2023-09-07T14:58:32;27.20;99.90
22450;DHT22;11392;57.390;-2.468;2023-09-07T15:01:00;27.10;99.90
22450;DHT22;11392;57.390;-2.468;2023-09-07T15:03:27;27.20;99.90
22450;DHT22;11392;57.390;-2.468;2023-09-07T15:05:55;27.30;99.90
22450;DHT22;11392;57.390;-2.468;2023-09-07T15:08:23;27.50;99.90
22450;DHT22;11392;57.390;-2.468;2023-09-07T15:10:50;27.60;99.90
22450;DHT22;11392;57.390;-2.468;2023-09-07T15:13:17;27.80;99.90
22450;DHT22;11392;57.390;-2.468;2023-09-07T15:15:45;28.00;99.90
22450;DHT22;11392;57.390;-2.468;2023-09-07T15:18:12;27.90;99.90
22450;DHT22;11392;57.390;-2.468;2023-09-07T15:20:40;27.80;99.90
22450;DHT22;11392;57.390;-2.468;2023-09-07T15:23:07;27.70;99.90
22450;DHT22;11392;57.390;-2.468;2023-09-07T15:25:34;27.80;99.90
22450;DHT22;11392;57.390;-2.468;2023-09-07T15:28:01;27.90;99.90